createdAt,value
2023-03-02T00:00:59.120Z,3.80
2023-03-02T00:03:25.790Z,3.10
2023-03-02T00:05:53.949Z,5.90
2023-03-02T00:08:20.854Z,2.70
2023-03-02T00:10:47.807Z,5.00
2023-03-02T00:13:14.266Z,4.00
2023-03-02T00:15:40.856Z,4.60
2023-03-02T00:18:07.032Z,4.00
2023-03-02T00:20:35.127Z,3.90
2023-03-02T00:23:01.284Z,4.40
2023-03-02T00:25:28.143Z,4.00
2023-03-02T00:27:54.356Z,5.50
2023-03-02T00:30:20.552Z,5.40
2023-03-02T00:32:46.693Z,3.60
2023-03-02T00:35:12.831Z,2.30
2023-03-02T00:37:39.006Z,2.90
2023-03-02T00:40:07.215Z,2.00
2023-03-02T00:42:33.652Z,3.20
2023-03-02T00:45:00.920Z,7.50
2023-03-02T00:47:33.025Z,4.00
2023-03-02T00:50:01.828Z,7.30
2023-03-02T00:52:32.290Z,14.40
2023-03-02T00:54:58.894Z,15.00
2023-03-02T00:57:25.620Z,16.00
2023-03-02T00:59:53.696Z,14.60
2023-03-02T01:02:26.935Z,15.40
2023-03-02T01:04:53.622Z,13.40
2023-03-02T01:07:20.802Z,8.20
2023-03-02T01:09:50.377Z,3.50
2023-03-02T01:12:16.619Z,3.00
2023-03-02T01:14:46.421Z,1.80
2023-03-02T01:17:13.212Z,1.40
2023-03-02T01:19:40.550Z,2.10
2023-03-02T01:22:07.364Z,1.50
2023-03-02T01:24:33.543Z,1.60
2023-03-02T01:26:59.950Z,2.00
2023-03-02T01:29:26.261Z,1.50
2023-03-02T01:31:52.697Z,2.60
2023-03-02T01:34:18.773Z,4.10
2023-03-02T01:36:45.018Z,1.80
2023-03-02T01:39:15.192Z,1.50
2023-03-02T01:41:45.626Z,2.30
2023-03-02T01:44:37.918Z,3.90
2023-03-02T01:47:14.672Z,1.60
2023-03-02T01:49:56.129Z,1.90
2023-03-02T01:52:23.461Z,1.60
2023-03-02T01:54:52.620Z,1.70
2023-03-02T01:57:25.680Z,1.50
2023-03-02T02:00:01.109Z,1.80
2023-03-02T02:02:28.148Z,1.80
2023-03-02T02:04:55.625Z,1.60
2023-03-02T02:07:22.108Z,2.30
2023-03-02T02:09:52.324Z,1.10
2023-03-02T02:12:21.663Z,1.20
2023-03-02T02:14:48.670Z,1.40
2023-03-02T02:17:17.189Z,1.60
2023-03-02T02:19:43.214Z,1.50
2023-03-02T02:22:10.978Z,1.80
2023-03-02T02:24:43.871Z,2.10
2023-03-02T02:27:11.585Z,1.60
2023-03-02T02:29:45.482Z,1.50
2023-03-02T02:32:15.315Z,4.70
2023-03-02T02:34:50.798Z,2.90
2023-03-02T02:37:26.068Z,1.70
2023-03-02T02:39:53.087Z,1.50
2023-03-02T02:42:35.540Z,1.60
2023-03-02T02:45:05.950Z,1.60
2023-03-02T02:47:32.260Z,1.60
2023-03-02T02:49:58.722Z,3.30
2023-03-02T02:52:28.834Z,1.70
2023-03-02T02:54:57.351Z,2.10
2023-03-02T02:57:27.976Z,4.50
2023-03-02T02:59:57.669Z,1.80
2023-03-02T03:02:32.813Z,3.40
2023-03-02T03:05:04.876Z,3.50
2023-03-02T03:07:33.632Z,1.40
2023-03-02T03:10:13.652Z,1.80
2023-03-02T03:12:40.100Z,1.60
2023-03-02T03:15:08.382Z,1.50
2023-03-02T03:17:34.534Z,2.80
2023-03-02T03:20:10.476Z,3.10
2023-03-02T03:22:40.942Z,2.90
2023-03-02T03:25:09.087Z,2.90
2023-03-02T03:27:35.177Z,1.60
2023-03-02T03:30:02.456Z,2.90
2023-03-02T03:32:33.753Z,1.50
2023-03-02T03:35:00.151Z,1.20
2023-03-02T03:37:29.248Z,2.20
2023-03-02T03:39:55.426Z,1.50
2023-03-02T03:42:23.504Z,1.30
2023-03-02T03:44:50.010Z,1.50
2023-03-02T03:47:16.324Z,1.70
2023-03-02T03:49:42.944Z,1.20
2023-03-02T03:52:09.233Z,2.00
2023-03-02T03:54:35.430Z,1.10
2023-03-02T03:57:01.515Z,1.90
2023-03-02T03:59:27.865Z,1.30
2023-03-02T04:02:00.586Z,1.60
2023-03-02T04:04:33.408Z,1.50
2023-03-02T04:07:01.855Z,1.20
2023-03-02T04:09:31.571Z,1.20
2023-03-02T04:11:58.152Z,1.80
2023-03-02T04:14:25.255Z,0.90
2023-03-02T04:16:52.609Z,1.30
2023-03-02T04:19:20.967Z,0.90
2023-03-02T04:21:52.256Z,1.70
2023-03-02T04:24:22.410Z,1.60
2023-03-02T04:26:50.215Z,2.00
2023-03-02T04:29:17.697Z,1.60
2023-03-02T04:31:44.206Z,1.80
2023-03-02T04:34:11.176Z,2.20
2023-03-02T04:36:40.272Z,1.60
2023-03-02T04:39:10.596Z,2.40
2023-03-02T04:41:36.692Z,2.50
2023-03-02T04:44:03.292Z,2.80
2023-03-02T04:46:29.916Z,2.50
2023-03-02T04:48:56.075Z,3.30
2023-03-02T04:51:26.242Z,2.30
2023-03-02T04:53:54.717Z,2.70
2023-03-02T04:56:21.484Z,2.70
2023-03-02T04:58:47.745Z,2.70
2023-03-02T05:01:15.552Z,2.60
2023-03-02T05:03:41.833Z,1.80
2023-03-02T05:06:08.439Z,2.10
2023-03-02T05:08:34.602Z,2.10
2023-03-02T05:11:00.823Z,3.40
2023-03-02T05:13:27.522Z,2.90
2023-03-02T05:15:56.768Z,2.10
2023-03-02T05:18:24.312Z,1.60
2023-03-02T05:20:51.993Z,2.80
2023-03-02T05:23:29.981Z,3.50
2023-03-02T05:25:56.235Z,5.00
2023-03-02T05:28:24.338Z,2.30
2023-03-02T05:30:51.217Z,2.20
2023-03-02T05:33:18.365Z,3.00
2023-03-02T05:35:45.274Z,2.60
2023-03-02T05:38:11.861Z,3.20
2023-03-02T05:40:39.669Z,2.70
2023-03-02T05:43:06.701Z,2.20
2023-03-02T05:45:35.852Z,2.40
2023-03-02T05:48:02.950Z,2.00
2023-03-02T05:50:29.356Z,2.70
2023-03-02T05:52:55.566Z,2.50
2023-03-02T05:55:21.655Z,2.60
2023-03-02T05:57:50.586Z,2.60
2023-03-02T06:00:17.647Z,2.40
2023-03-02T06:02:43.739Z,3.00
2023-03-02T06:05:13.050Z,4.10
2023-03-02T06:07:39.455Z,3.10
2023-03-02T06:10:08.297Z,2.70
2023-03-02T06:12:35.229Z,2.40
2023-03-02T06:15:01.848Z,3.00
2023-03-02T06:17:28.026Z,2.50
2023-03-02T06:19:54.102Z,3.90
2023-03-02T06:22:20.272Z,3.50
2023-03-02T06:24:46.333Z,2.60
2023-03-02T06:27:13.406Z,3.10
2023-03-02T06:29:39.486Z,3.30
2023-03-02T06:32:06.239Z,3.80
2023-03-02T06:34:34.524Z,3.00
2023-03-02T06:37:01.678Z,2.70
2023-03-02T06:39:27.731Z,2.70
2023-03-02T06:41:54.046Z,3.10
2023-03-02T06:44:20.444Z,5.30
2023-03-02T06:46:46.539Z,4.00
2023-03-02T06:49:14.185Z,4.90
2023-03-02T06:51:42.132Z,3.60
2023-03-02T06:54:09.656Z,4.00
2023-03-02T06:56:36.432Z,6.80
2023-03-02T06:59:02.648Z,4.60
2023-03-02T07:01:35.022Z,5.20
2023-03-02T07:04:03.112Z,4.30
2023-03-02T07:06:29.273Z,5.00
2023-03-02T07:08:55.360Z,3.70
2023-03-02T07:11:21.636Z,5.20
2023-03-02T07:13:47.755Z,4.40
2023-03-02T07:16:14.779Z,4.50
2023-03-02T07:18:41.483Z,4.40
2023-03-02T07:21:07.882Z,6.20
2023-03-02T07:23:34.420Z,3.80
2023-03-02T07:26:00.562Z,4.50
2023-03-02T07:28:26.882Z,4.20
2023-03-02T07:30:53.832Z,4.40
2023-03-02T07:33:20.835Z,5.20
2023-03-02T07:35:47.048Z,4.70
2023-03-02T07:38:13.261Z,7.20
2023-03-02T07:40:41.279Z,4.20
2023-03-02T07:43:08.044Z,4.10
2023-03-02T07:45:34.506Z,2.80
2023-03-02T07:48:00.612Z,4.00
2023-03-02T07:50:26.663Z,3.90
2023-03-02T07:52:52.945Z,3.40
2023-03-02T07:55:19.005Z,3.80
2023-03-02T07:57:45.110Z,4.20
2023-03-02T08:00:12.084Z,3.40
2023-03-02T08:02:42.308Z,3.50
2023-03-02T08:05:10.509Z,4.60
2023-03-02T08:07:36.845Z,6.10
2023-03-02T08:10:03.528Z,3.10
2023-03-02T08:12:29.669Z,3.90
2023-03-02T08:14:55.997Z,6.20
2023-03-02T08:17:22.338Z,5.30
2023-03-02T08:19:48.672Z,3.30
2023-03-02T08:22:15.024Z,6.00
2023-03-02T08:24:42.206Z,5.30
2023-03-02T08:27:13.018Z,3.40
2023-03-02T08:29:39.357Z,5.30
2023-03-02T08:32:06.007Z,4.50
2023-03-02T08:34:32.285Z,4.80
2023-03-02T08:36:58.729Z,5.40
2023-03-02T08:39:24.851Z,4.10
2023-03-02T08:41:54.153Z,5.10
2023-03-02T08:44:21.535Z,4.70
2023-03-02T08:46:49.422Z,7.60
2023-03-02T08:49:15.963Z,5.00
2023-03-02T08:51:42.755Z,6.10
2023-03-02T08:54:10.504Z,6.60
2023-03-02T08:56:38.944Z,4.70
2023-03-02T08:59:09.242Z,7.30
2023-03-02T09:01:37.318Z,6.50
2023-03-02T09:04:05.945Z,6.80
2023-03-02T09:06:36.394Z,5.10
2023-03-02T09:09:04.359Z,5.70
2023-03-02T09:11:31.246Z,6.50
2023-03-02T09:13:57.604Z,6.40
2023-03-02T09:16:25.170Z,5.50
2023-03-02T09:18:52.343Z,5.10
2023-03-02T09:21:18.932Z,5.80
2023-03-02T09:23:45.426Z,6.00
2023-03-02T09:26:11.609Z,6.60
2023-03-02T09:28:38.336Z,6.90
2023-03-02T09:31:06.774Z,6.80
2023-03-02T09:33:34.539Z,9.60
2023-03-02T09:36:05.283Z,6.20
2023-03-02T09:38:31.320Z,6.40
2023-03-02T09:41:08.453Z,6.60
2023-03-02T09:44:14.598Z,5.30
2023-03-02T09:46:48.936Z,4.10
2023-03-02T09:49:39.935Z,6.60
2023-03-02T09:52:13.260Z,6.30
2023-03-02T09:54:40.328Z,5.80
2023-03-02T09:57:38.022Z,16.40
2023-03-02T10:00:19.528Z,6.10
2023-03-02T10:02:46.126Z,6.60
2023-03-02T10:05:17.414Z,6.10
2023-03-02T10:07:45.664Z,6.30
2023-03-02T10:10:17.667Z,7.30
2023-03-02T10:12:55.808Z,5.60
2023-03-02T10:15:30.746Z,6.10
2023-03-02T10:18:21.348Z,5.60
2023-03-02T10:20:59.152Z,6.20
2023-03-02T10:23:25.161Z,4.70
2023-03-02T10:26:05.381Z,4.80
2023-03-02T10:28:40.875Z,4.70
2023-03-02T10:31:25.337Z,4.00
2023-03-02T10:33:51.508Z,5.50
2023-03-02T10:36:22.897Z,5.70
2023-03-02T10:38:49.683Z,4.50
2023-03-02T10:41:22.877Z,5.90
2023-03-02T10:43:53.170Z,6.00
2023-03-02T10:46:19.602Z,6.50
2023-03-02T10:48:51.583Z,9.70
2023-03-02T10:51:29.356Z,4.90
2023-03-02T10:54:14.288Z,7.00
2023-03-02T10:56:49.850Z,7.80
2023-03-02T10:59:30.936Z,6.20
2023-03-02T11:02:25.009Z,4.40
2023-03-02T11:05:10.218Z,4.00
2023-03-02T11:07:36.340Z,6.80
2023-03-02T11:10:07.109Z,6.30
2023-03-02T11:12:36.379Z,4.90
2023-03-02T11:15:14.263Z,5.20
2023-03-02T11:17:42.482Z,5.00
2023-03-02T11:20:17.093Z,4.50
2023-03-02T11:23:27.931Z,4.40
2023-03-02T11:25:58.485Z,3.70
2023-03-02T11:28:45.873Z,6.70
2023-03-02T11:31:52.718Z,5.20
2023-03-02T11:34:46.047Z,5.30
2023-03-02T11:37:22.398Z,4.70
2023-03-02T11:39:54.952Z,3.10
2023-03-02T11:42:29.850Z,5.80
2023-03-02T11:45:00.177Z,5.60
2023-03-02T11:47:27.738Z,6.00
2023-03-02T11:49:57.713Z,5.80
2023-03-02T11:52:31.470Z,5.40
2023-03-02T11:55:03.953Z,4.40
2023-03-02T11:57:38.583Z,6.90
2023-03-02T12:00:14.881Z,5.10
2023-03-02T12:02:40.984Z,5.50
2023-03-02T12:05:23.769Z,4.20
2023-03-02T12:08:01.294Z,5.20
2023-03-02T12:10:35.574Z,9.70
2023-03-02T12:13:32.332Z,5.20
2023-03-02T12:15:59.334Z,4.90
2023-03-02T12:18:39.950Z,4.20
2023-03-02T12:21:15.957Z,4.20
2023-03-02T12:23:50.817Z,5.30
2023-03-02T12:26:19.973Z,5.70
2023-03-02T12:29:10.390Z,7.80
2023-03-02T12:31:51.653Z,4.20
2023-03-02T12:34:23.868Z,7.20
2023-03-02T12:36:54.193Z,4.00
2023-03-02T12:39:32.214Z,4.10
2023-03-02T12:42:11.926Z,5.40
2023-03-02T12:44:56.223Z,6.70
2023-03-02T12:47:29.317Z,3.80
2023-03-02T12:49:58.604Z,5.70
2023-03-02T12:52:34.020Z,4.70
2023-03-02T12:55:08.818Z,4.40
2023-03-02T12:57:38.598Z,3.70
2023-03-02T13:00:05.960Z,3.20
2023-03-02T13:02:34.658Z,5.30
2023-03-02T13:05:06.464Z,8.30
2023-03-02T13:07:40.727Z,6.00
2023-03-02T13:10:25.267Z,4.70
2023-03-02T13:12:51.521Z,4.60
2023-03-02T13:15:17.901Z,6.60
2023-03-02T13:17:51.643Z,5.10
2023-03-02T13:20:19.684Z,3.30
2023-03-02T13:22:46.234Z,5.50
2023-03-02T13:25:23.086Z,7.80
2023-03-02T13:28:00.139Z,5.00
2023-03-02T13:30:29.709Z,5.20
2023-03-02T13:33:01.010Z,6.40
2023-03-02T13:35:30.419Z,4.80
2023-03-02T13:37:58.958Z,5.50
2023-03-02T13:40:38.387Z,4.70
2023-03-02T13:43:18.674Z,4.90
2023-03-02T13:46:14.675Z,6.70
2023-03-02T13:48:40.838Z,7.00
2023-03-02T13:51:17.018Z,6.10
2023-03-02T13:54:04.113Z,6.00
2023-03-02T13:56:37.369Z,4.30
2023-03-02T13:59:04.770Z,6.40
2023-03-02T14:01:30.877Z,7.20
2023-03-02T14:03:58.682Z,5.20
2023-03-02T14:06:24.827Z,5.40
2023-03-02T14:08:50.852Z,4.60
2023-03-02T14:11:17.994Z,6.20
2023-03-02T14:14:04.095Z,6.00
2023-03-02T14:16:30.406Z,5.70
2023-03-02T14:18:56.799Z,3.80
2023-03-02T14:21:24.692Z,5.90
2023-03-02T14:23:52.183Z,5.30
2023-03-02T14:26:30.048Z,4.60
2023-03-02T14:29:05.530Z,6.00
2023-03-02T14:31:33.151Z,6.70
2023-03-02T14:33:59.370Z,5.50
2023-03-02T14:36:32.528Z,5.10
2023-03-02T14:39:02.294Z,5.90
2023-03-02T14:41:29.328Z,9.70
2023-03-02T14:43:55.465Z,6.20
2023-03-02T14:46:21.617Z,4.50
2023-03-02T14:48:47.813Z,5.70
2023-03-02T14:51:26.617Z,7.30
2023-03-02T14:53:54.962Z,9.50
2023-03-02T14:56:22.344Z,5.90
2023-03-02T14:58:50.307Z,6.30
2023-03-02T15:01:17.640Z,6.60
2023-03-02T15:03:43.884Z,8.40
2023-03-02T15:06:25.245Z,6.90
2023-03-02T15:08:51.526Z,7.30
2023-03-02T15:11:17.670Z,7.80
2023-03-02T15:13:45.673Z,6.90
2023-03-02T15:16:11.903Z,7.60
2023-03-02T15:18:38.608Z,5.70
2023-03-02T15:21:05.972Z,7.00
2023-03-02T15:23:32.417Z,6.40
2023-03-02T15:26:03.056Z,8.60
2023-03-02T15:28:29.418Z,5.20
2023-03-02T15:30:55.572Z,5.10
2023-03-02T15:33:22.142Z,6.80
2023-03-02T15:35:55.467Z,6.90
2023-03-02T15:38:21.806Z,5.80
2023-03-02T15:40:47.937Z,8.50
2023-03-02T15:43:14.080Z,7.40
2023-03-02T15:45:47.065Z,5.90
2023-03-02T15:48:13.776Z,8.30
2023-03-02T15:50:42.985Z,7.60
2023-03-02T15:53:09.258Z,5.20
2023-03-02T15:55:40.011Z,9.20
2023-03-02T15:58:08.631Z,8.90
2023-03-02T16:00:37.013Z,8.40
2023-03-02T16:03:03.501Z,8.40
2023-03-02T16:05:29.619Z,8.40
2023-03-02T16:07:55.715Z,7.20
2023-03-02T16:10:24.268Z,8.70
2023-03-02T16:12:50.338Z,7.60
2023-03-02T16:15:16.593Z,9.40
2023-03-02T16:17:42.821Z,10.90
2023-03-02T16:20:12.119Z,10.00
2023-03-02T16:22:38.367Z,9.10
2023-03-02T16:25:04.911Z,7.60
2023-03-02T16:27:30.931Z,9.30
2023-03-02T16:29:57.147Z,8.50
2023-03-02T16:32:23.434Z,8.20
2023-03-02T16:34:49.648Z,12.50
2023-03-02T16:37:15.874Z,8.90
2023-03-02T16:39:42.117Z,11.00
2023-03-02T16:42:08.217Z,11.40
2023-03-02T16:44:34.432Z,12.50
2023-03-02T16:47:00.485Z,17.40
2023-03-02T16:49:26.678Z,11.70
2023-03-02T16:51:57.414Z,15.20
2023-03-02T16:54:24.250Z,12.30
2023-03-02T16:56:50.584Z,15.40
2023-03-02T16:59:16.731Z,11.30
2023-03-02T17:01:43.076Z,10.70
2023-03-02T17:04:09.305Z,11.40
2023-03-02T17:06:35.408Z,11.00
2023-03-02T17:09:01.612Z,8.80
2023-03-02T17:11:27.839Z,8.60
2023-03-02T17:13:53.925Z,8.40
2023-03-02T17:16:20.217Z,6.90
2023-03-02T17:18:46.425Z,9.60
2023-03-02T17:21:15.604Z,10.80
2023-03-02T17:23:42.883Z,8.20
2023-03-02T17:26:09.294Z,10.40
2023-03-02T17:28:35.616Z,10.00
2023-03-02T17:31:04.259Z,9.40
2023-03-02T17:33:31.527Z,9.50
2023-03-02T17:35:57.657Z,11.20
2023-03-02T17:38:23.777Z,9.20
2023-03-02T17:40:50.103Z,9.30
2023-03-02T17:43:16.262Z,7.10
2023-03-02T17:45:43.120Z,9.50
2023-03-02T17:48:12.048Z,7.20
2023-03-02T17:50:38.305Z,8.70
2023-03-02T17:55:31.162Z,7.50
2023-03-02T17:57:57.423Z,8.60
2023-03-02T18:00:24.421Z,6.90
2023-03-02T18:02:51.695Z,10.30
2023-03-02T18:05:18.218Z,7.10
2023-03-02T18:07:44.586Z,10.00
2023-03-02T18:10:11.942Z,7.90
2023-03-02T18:12:38.233Z,7.40
2023-03-02T18:15:04.973Z,11.40
2023-03-02T18:19:57.404Z,9.40
2023-03-02T18:22:24.948Z,8.10
2023-03-02T18:24:52.241Z,7.40
2023-03-02T18:27:18.768Z,4.80
2023-03-02T18:29:45.037Z,6.20
2023-03-02T18:32:11.908Z,7.90
2023-03-02T18:34:38.530Z,6.70
2023-03-02T18:37:05.073Z,5.90
2023-03-02T18:39:31.412Z,9.70
2023-03-02T18:41:57.648Z,6.90
2023-03-02T18:44:30.383Z,7.90
2023-03-02T18:46:57.084Z,7.10
2023-03-02T18:49:24.224Z,8.40
2023-03-02T18:54:16.484Z,8.60
2023-03-02T18:56:42.791Z,7.80
2023-03-02T18:59:12.693Z,8.10
2023-03-02T19:01:39.004Z,8.10
2023-03-02T19:04:05.651Z,10.60
2023-03-02T19:06:33.759Z,7.20
2023-03-02T19:09:00.278Z,9.10
2023-03-02T19:11:26.783Z,6.30
2023-03-02T19:13:53.177Z,8.00
2023-03-02T19:16:19.544Z,7.90
2023-03-02T19:18:46.180Z,9.00
2023-03-02T19:21:12.355Z,7.10
2023-03-02T19:23:38.819Z,6.00
2023-03-02T19:26:05.166Z,8.20
2023-03-02T19:28:33.292Z,7.10
2023-03-02T19:31:03.648Z,7.50
2023-03-02T19:33:31.100Z,9.90
2023-03-02T19:35:57.230Z,9.60
2023-03-02T19:38:23.526Z,9.10
2023-03-02T19:40:49.676Z,7.90
2023-03-02T19:43:16.258Z,8.20
2023-03-02T19:45:42.497Z,8.30
2023-03-02T19:48:12.829Z,7.60
2023-03-02T19:50:39.350Z,9.70
2023-03-02T19:53:06.067Z,7.40
2023-03-02T19:55:33.769Z,7.40
2023-03-02T19:58:23.018Z,6.50
2023-03-02T20:00:49.237Z,8.40
2023-03-02T20:03:15.454Z,9.00
2023-03-02T20:05:41.698Z,8.10
2023-03-02T20:08:08.540Z,8.20
2023-03-02T20:10:40.597Z,9.20
2023-03-02T20:13:07.795Z,11.40
2023-03-02T20:15:37.793Z,15.10
2023-03-02T20:18:05.601Z,8.60
2023-03-02T20:20:32.938Z,8.80
2023-03-02T20:23:03.929Z,9.40
2023-03-02T20:25:30.904Z,9.60
2023-03-02T20:27:57.747Z,8.20
2023-03-02T20:30:31.667Z,10.30
2023-03-02T20:32:58.827Z,8.40
2023-03-02T20:35:27.604Z,8.90
2023-03-02T20:37:55.432Z,8.70
2023-03-02T20:40:23.153Z,6.90
2023-03-02T20:42:49.326Z,8.40
2023-03-02T20:47:42.226Z,9.30
2023-03-02T20:50:13.170Z,6.30
2023-03-02T20:52:39.376Z,6.40
2023-03-02T20:55:06.635Z,6.70
2023-03-02T20:57:33.146Z,6.20
2023-03-02T21:00:00.646Z,5.80
2023-03-02T21:02:26.898Z,6.60
2023-03-02T21:04:53.664Z,5.00
2023-03-02T21:07:19.906Z,5.20
2023-03-02T21:09:46.201Z,1.80
2023-03-02T21:12:12.679Z,4.60
2023-03-02T21:14:39.881Z,5.20
2023-03-02T21:17:06.778Z,4.50
2023-03-02T21:19:33.991Z,5.20
2023-03-02T21:22:00.252Z,5.00
2023-03-02T21:24:26.600Z,6.20
2023-03-02T21:26:53.594Z,3.60
2023-03-02T21:29:22.028Z,4.00
2023-03-02T21:31:49.451Z,3.10
2023-03-02T21:34:18.173Z,3.60
2023-03-02T21:36:45.084Z,3.40
2023-03-02T21:39:12.937Z,4.00
2023-03-02T21:41:39.812Z,4.20
2023-03-02T21:44:06.753Z,3.70
2023-03-02T21:46:34.919Z,4.20
2023-03-02T21:49:01.225Z,3.50
2023-03-02T21:51:27.420Z,3.50
2023-03-02T21:53:53.523Z,3.40
2023-03-02T21:56:22.553Z,3.40
2023-03-02T21:58:54.509Z,3.30
2023-03-02T22:01:22.220Z,3.60
2023-03-02T22:03:49.352Z,3.40
2023-03-02T22:06:17.292Z,5.80
2023-03-02T22:08:43.634Z,3.70
2023-03-02T22:11:19.713Z,4.00
2023-03-02T22:13:48.149Z,4.10
2023-03-02T22:16:17.235Z,3.60
2023-03-02T22:18:45.266Z,3.40
2023-03-02T22:21:33.952Z,4.10
2023-03-02T22:24:10.355Z,3.20
2023-03-02T22:26:40.168Z,3.60
2023-03-02T22:29:35.126Z,3.80
2023-03-02T22:32:14.759Z,4.50
2023-03-02T22:34:43.559Z,3.60
2023-03-02T22:37:18.350Z,3.20
2023-03-02T22:39:45.084Z,4.20
2023-03-02T22:42:22.644Z,4.20
2023-03-02T22:45:21.352Z,4.90
2023-03-02T22:47:50.686Z,4.80
2023-03-02T22:50:24.272Z,4.70
2023-03-02T22:52:51.682Z,4.20
2023-03-02T22:55:26.780Z,3.50
2023-03-02T22:57:53.038Z,3.70
2023-03-02T23:00:28.254Z,3.70
2023-03-02T23:02:55.832Z,3.20
2023-03-02T23:05:26.377Z,3.50
2023-03-02T23:08:26.084Z,3.60
2023-03-02T23:10:56.972Z,3.00
2023-03-02T23:13:27.333Z,3.30
2023-03-02T23:15:54.206Z,2.70
2023-03-02T23:18:27.484Z,4.00
2023-03-02T23:20:53.983Z,3.50
2023-03-02T23:23:22.534Z,3.80
2023-03-02T23:25:49.062Z,3.20
2023-03-02T23:28:15.222Z,6.10
2023-03-02T23:30:41.575Z,3.30
2023-03-02T23:33:08.233Z,4.70
2023-03-02T23:35:34.708Z,3.70
2023-03-02T23:38:00.884Z,3.20
2023-03-02T23:40:28.311Z,3.80
2023-03-02T23:42:55.234Z,2.90
2023-03-02T23:45:21.437Z,3.00
2023-03-02T23:47:47.549Z,4.00
2023-03-02T23:50:13.813Z,2.90
2023-03-02T23:52:40.406Z,3.60
2023-03-02T23:55:08.217Z,3.70
2023-03-02T23:57:34.411Z,4.20
